sensor_id;sensor_type;location;lat;lon;timestamp;pressure;altitude;pressure_sealevel;temperature;humidity
13594;BME280;6449;47.666;9.160;2022-09-09T00:00:42;96775.56;;;15.79;100.00
13594;BME280;6449;47.666;9.160;2022-09-09T00:05:44;96776.47;;;15.69;100.00
13594;BME280;6449;47.666;9.160;2022-09-09T00:10:41;96776.50;;;15.60;100.00
13594;BME280;6449;47.666;9.160;2022-09-09T00:15:42;96775.09;;;15.65;100.00
13594;BME280;6449;47.666;9.160;2022-09-09T00:20:49;96778.03;;;15.62;100.00
13594;BME280;6449;47.666;9.160;2022-09-09T00:25:59;96778.59;;;15.66;100.00
13594;BME280;6449;47.666;9.160;2022-09-09T00:30:59;96776.81;;;15.57;100.00
13594;BME280;6449;47.666;9.160;2022-09-09T00:35:59;96768.53;;;15.52;100.00
13594;BME280;6449;47.666;9.160;2022-09-09T00:41:03;96764.06;;;15.34;100.00
13594;BME280;6449;47.666;9.160;2022-09-09T00:46:34;96779.34;;;15.31;100.00
13594;BME280;6449;47.666;9.160;2022-09-09T00:51:46;96771.44;;;15.31;100.00
13594;BME280;6449;47.666;9.160;2022-09-09T00:57:00;96775.72;;;15.32;100.00
13594;BME280;6449;47.666;9.160;2022-09-09T01:01:59;96759.97;;;15.40;100.00
13594;BME280;6449;47.666;9.160;2022-09-09T01:07:04;96763.50;;;15.31;100.00
13594;BME280;6449;47.666;9.160;2022-09-09T01:12:09;96764.41;;;15.22;100.00
13594;BME280;6449;47.666;9.160;2022-09-09T01:17:13;96749.47;;;15.30;100.00
13594;BME280;6449;47.666;9.160;2022-09-09T01:22:17;96745.19;;;15.29;100.00
13594;BME280;6449;47.666;9.160;2022-09-09T01:27:17;96745.63;;;15.42;100.00
13594;BME280;6449;47.666;9.160;2022-09-09T01:32:41;96744.72;;;15.34;100.00
13594;BME280;6449;47.666;9.160;2022-09-09T01:37:35;96735.38;;;15.39;100.00
13594;BME280;6449;47.666;9.160;2022-09-09T01:42:31;96750.41;;;15.11;100.00
13594;BME280;6449;47.666;9.160;2022-09-09T01:47:25;96742.88;;;15.16;100.00
13594;BME280;6449;47.666;9.160;2022-09-09T01:52:18;96739.06;;;15.29;100.00
13594;BME280;6449;47.666;9.160;2022-09-09T01:57:18;96732.41;;;15.25;100.00
13594;BME280;6449;47.666;9.160;2022-09-09T02:02:18;96746.50;;;15.15;100.00
13594;BME280;6449;47.666;9.160;2022-09-09T02:07:31;96753.66;;;15.05;100.00
13594;BME280;6449;47.666;9.160;2022-09-09T02:12:29;96761.28;;;15.08;100.00
13594;BME280;6449;47.666;9.160;2022-09-09T02:17:28;96776.66;;;15.40;100.00
13594;BME280;6449;47.666;9.160;2022-09-09T02:22:26;96765.28;;;15.40;100.00
13594;BME280;6449;47.666;9.160;2022-09-09T02:27:23;96765.03;;;15.51;100.00
13594;BME280;6449;47.666;9.160;2022-09-09T02:32:21;96765.34;;;15.48;100.00
13594;BME280;6449;47.666;9.160;2022-09-09T02:37:20;96771.06;;;15.43;100.00
13594;BME280;6449;47.666;9.160;2022-09-09T02:42:15;96776.88;;;15.47;100.00
13594;BME280;6449;47.666;9.160;2022-09-09T02:47:34;96785.63;;;15.48;100.00
13594;BME280;6449;47.666;9.160;2022-09-09T02:52:45;96779.91;;;15.52;100.00
13594;BME280;6449;47.666;9.160;2022-09-09T02:57:42;96790.53;;;15.60;100.00
13594;BME280;6449;47.666;9.160;2022-09-09T03:02:37;96787.06;;;15.60;100.00
13594;BME280;6449;47.666;9.160;2022-09-09T03:07:31;96783.31;;;15.62;100.00
13594;BME280;6449;47.666;9.160;2022-09-09T03:12:25;96792.25;;;15.79;100.00
13594;BME280;6449;47.666;9.160;2022-09-09T03:17:18;96785.81;;;15.82;100.00
13594;BME280;6449;47.666;9.160;2022-09-09T03:22:13;96798.31;;;15.71;100.00
13594;BME280;6449;47.666;9.160;2022-09-09T03:27:08;96804.94;;;15.76;100.00
13594;BME280;6449;47.666;9.160;2022-09-09T03:32:02;96795.97;;;15.68;100.00
13594;BME280;6449;47.666;9.160;2022-09-09T03:36:56;96800.94;;;15.89;100.00
13594;BME280;6449;47.666;9.160;2022-09-09T03:41:49;96805.31;;;15.81;100.00
13594;BME280;6449;47.666;9.160;2022-09-09T03:46:44;96806.78;;;15.93;100.00
13594;BME280;6449;47.666;9.160;2022-09-09T03:51:37;96806.03;;;15.83;100.00
13594;BME280;6449;47.666;9.160;2022-09-09T03:56:32;96804.56;;;15.88;100.00
13594;BME280;6449;47.666;9.160;2022-09-09T04:01:26;96807.59;;;15.93;100.00
13594;BME280;6449;47.666;9.160;2022-09-09T04:06:21;96794.75;;;15.98;100.00
13594;BME280;6449;47.666;9.160;2022-09-09T04:11:15;96800.72;;;16.01;100.00
13594;BME280;6449;47.666;9.160;2022-09-09T04:16:10;96806.38;;;16.06;100.00
13594;BME280;6449;47.666;9.160;2022-09-09T04:21:05;96805.00;;;16.02;100.00
13594;BME280;6449;47.666;9.160;2022-09-09T04:26:02;96813.03;;;16.10;100.00
13594;BME280;6449;47.666;9.160;2022-09-09T04:30:56;96813.09;;;16.00;100.00
13594;BME280;6449;47.666;9.160;2022-09-09T04:35:50;96807.66;;;16.02;100.00
13594;BME280;6449;47.666;9.160;2022-09-09T04:40:47;96806.75;;;16.11;100.00
13594;BME280;6449;47.666;9.160;2022-09-09T04:45:41;96821.03;;;16.00;100.00
13594;BME280;6449;47.666;9.160;2022-09-09T04:50:35;96815.28;;;16.05;100.00
13594;BME280;6449;47.666;9.160;2022-09-09T04:55:29;96815.13;;;16.06;100.00
13594;BME280;6449;47.666;9.160;2022-09-09T05:00:23;96812.94;;;16.02;100.00
13594;BME280;6449;47.666;9.160;2022-09-09T05:05:20;96800.50;;;15.94;100.00
13594;BME280;6449;47.666;9.160;2022-09-09T05:10:14;96794.63;;;15.82;100.00
13594;BME280;6449;47.666;9.160;2022-09-09T05:15:10;96795.06;;;15.78;100.00
13594;BME280;6449;47.666;9.160;2022-09-09T05:20:05;96801.69;;;15.82;100.00
13594;BME280;6449;47.666;9.160;2022-09-09T05:25:04;96809.03;;;15.60;100.00
13594;BME280;6449;47.666;9.160;2022-09-09T05:29:57;96800.03;;;15.63;100.00
13594;BME280;6449;47.666;9.160;2022-09-09T05:34:51;96797.63;;;15.69;100.00
13594;BME280;6449;47.666;9.160;2022-09-09T05:39:44;96793.47;;;15.67;100.00
13594;BME280;6449;47.666;9.160;2022-09-09T05:44:39;96800.63;;;15.75;100.00
13594;BME280;6449;47.666;9.160;2022-09-09T05:49:36;96807.19;;;15.70;100.00
13594;BME280;6449;47.666;9.160;2022-09-09T05:54:30;96819.63;;;15.60;100.00
13594;BME280;6449;47.666;9.160;2022-09-09T05:59:24;96823.06;;;15.70;100.00
13594;BME280;6449;47.666;9.160;2022-09-09T06:04:19;96831.38;;;15.76;100.00
13594;BME280;6449;47.666;9.160;2022-09-09T06:09:14;96831.69;;;15.73;100.00
13594;BME280;6449;47.666;9.160;2022-09-09T06:14:08;96829.09;;;15.81;100.00
13594;BME280;6449;47.666;9.160;2022-09-09T06:19:02;96828.38;;;15.88;100.00
13594;BME280;6449;47.666;9.160;2022-09-09T06:23:57;96827.53;;;15.88;100.00
13594;BME280;6449;47.666;9.160;2022-09-09T06:28:54;96833.50;;;15.90;100.00
13594;BME280;6449;47.666;9.160;2022-09-09T06:33:51;96833.94;;;15.85;100.00
13594;BME280;6449;47.666;9.160;2022-09-09T06:38:45;96834.03;;;15.93;100.00
13594;BME280;6449;47.666;9.160;2022-09-09T06:43:40;96824.88;;;16.06;100.00
13594;BME280;6449;47.666;9.160;2022-09-09T06:48:33;96825.94;;;16.13;100.00
13594;BME280;6449;47.666;9.160;2022-09-09T06:53:28;96833.94;;;16.21;100.00
13594;BME280;6449;47.666;9.160;2022-09-09T06:58:21;96832.41;;;16.36;100.00
13594;BME280;6449;47.666;9.160;2022-09-09T07:03:16;96834.38;;;16.34;100.00
13594;BME280;6449;47.666;9.160;2022-09-09T07:08:10;96834.59;;;16.41;100.00
13594;BME280;6449;47.666;9.160;2022-09-09T07:13:04;96825.59;;;16.52;100.00
13594;BME280;6449;47.666;9.160;2022-09-09T07:18:01;96826.78;;;16.57;100.00
13594;BME280;6449;47.666;9.160;2022-09-09T07:22:56;96833.75;;;16.66;100.00
13594;BME280;6449;47.666;9.160;2022-09-09T07:27:50;96834.72;;;16.57;100.00
13594;BME280;6449;47.666;9.160;2022-09-09T07:32:43;96824.50;;;16.62;100.00
13594;BME280;6449;47.666;9.160;2022-09-09T07:37:37;96826.16;;;16.63;100.00
13594;BME280;6449;47.666;9.160;2022-09-09T07:42:42;96836.41;;;16.66;100.00
13594;BME280;6449;47.666;9.160;2022-09-09T07:47:35;96839.81;;;16.76;100.00
13594;BME280;6449;47.666;9.160;2022-09-09T07:52:28;96843.88;;;16.89;100.00
13594;BME280;6449;47.666;9.160;2022-09-09T07:57:21;96840.31;;;17.06;100.00
13594;BME280;6449;47.666;9.160;2022-09-09T08:02:24;96841.94;;;17.41;100.00
13594;BME280;6449;47.666;9.160;2022-09-09T08:07:25;96853.25;;;17.43;100.00
13594;BME280;6449;47.666;9.160;2022-09-09T08:12:19;96865.00;;;17.91;100.00
13594;BME280;6449;47.666;9.160;2022-09-09T08:17:12;96877.81;;;18.12;100.00
13594;BME280;6449;47.666;9.160;2022-09-09T08:22:07;96887.13;;;18.32;100.00
13594;BME280;6449;47.666;9.160;2022-09-09T08:27:00;96889.94;;;18.47;100.00
13594;BME280;6449;47.666;9.160;2022-09-09T08:31:56;96880.81;;;18.42;100.00
13594;BME280;6449;47.666;9.160;2022-09-09T08:36:51;96881.50;;;18.68;100.00
13594;BME280;6449;47.666;9.160;2022-09-09T08:42:25;96881.63;;;18.99;100.00
13594;BME280;6449;47.666;9.160;2022-09-09T08:47:31;96872.59;;;19.17;100.00
13594;BME280;6449;47.666;9.160;2022-09-09T08:52:31;96881.97;;;19.52;100.00
13594;BME280;6449;47.666;9.160;2022-09-09T08:57:28;96878.16;;;19.46;100.00
13594;BME280;6449;47.666;9.160;2022-09-09T09:02:32;96882.09;;;19.58;100.00
13594;BME280;6449;47.666;9.160;2022-09-09T09:07:54;96879.41;;;19.19;100.00
13594;BME280;6449;47.666;9.160;2022-09-09T09:12:53;96875.47;;;18.99;100.00
13594;BME280;6449;47.666;9.160;2022-09-09T09:18:02;96885.78;;;18.94;100.00
13594;BME280;6449;47.666;9.160;2022-09-09T09:23:02;96878.16;;;18.74;100.00
13594;BME280;6449;47.666;9.160;2022-09-09T09:28:02;96879.81;;;18.51;100.00
13594;BME280;6449;47.666;9.160;2022-09-09T09:33:03;96877.81;;;18.37;100.00
13594;BME280;6449;47.666;9.160;2022-09-09T09:38:13;96883.78;;;18.22;100.00
13594;BME280;6449;47.666;9.160;2022-09-09T09:43:34;96884.97;;;18.61;100.00
13594;BME280;6449;47.666;9.160;2022-09-09T09:48:28;96898.06;;;18.62;100.00
13594;BME280;6449;47.666;9.160;2022-09-09T09:53:25;96890.78;;;18.72;100.00
13594;BME280;6449;47.666;9.160;2022-09-09T09:58:19;96881.66;;;18.91;100.00
13594;BME280;6449;47.666;9.160;2022-09-09T10:03:25;96879.50;;;18.78;100.00
13594;BME280;6449;47.666;9.160;2022-09-09T10:08:19;96863.22;;;18.81;100.00
13594;BME280;6449;47.666;9.160;2022-09-09T10:13:20;96872.53;;;18.77;100.00
13594;BME280;6449;47.666;9.160;2022-09-09T10:18:41;96866.72;;;18.82;100.00
13594;BME280;6449;47.666;9.160;2022-09-09T10:23:58;96883.47;;;18.74;100.00
13594;BME280;6449;47.666;9.160;2022-09-09T10:29:25;96872.03;;;18.82;100.00
13594;BME280;6449;47.666;9.160;2022-09-09T10:34:49;96878.50;;;18.79;100.00
13594;BME280;6449;47.666;9.160;2022-09-09T10:40:01;96871.00;;;18.75;100.00
13594;BME280;6449;47.666;9.160;2022-09-09T10:45:09;96858.34;;;19.01;100.00
13594;BME280;6449;47.666;9.160;2022-09-09T10:50:29;96863.28;;;19.21;100.00
13594;BME280;6449;47.666;9.160;2022-09-09T10:55:55;96861.66;;;19.11;100.00
13594;BME280;6449;47.666;9.160;2022-09-09T11:00:54;96871.94;;;19.15;100.00
13594;BME280;6449;47.666;9.160;2022-09-09T11:05:56;96881.78;;;18.98;100.00
13594;BME280;6449;47.666;9.160;2022-09-09T11:11:02;96877.50;;;18.89;100.00
13594;BME280;6449;47.666;9.160;2022-09-09T11:16:05;96882.31;;;18.69;100.00
13594;BME280;6449;47.666;9.160;2022-09-09T11:21:15;96888.09;;;18.64;100.00
13594;BME280;6449;47.666;9.160;2022-09-09T11:26:17;96888.63;;;18.59;100.00
13594;BME280;6449;47.666;9.160;2022-09-09T11:31:41;96882.94;;;19.03;100.00
13594;BME280;6449;47.666;9.160;2022-09-09T11:37:11;96867.22;;;19.41;100.00
13594;BME280;6449;47.666;9.160;2022-09-09T11:42:18;96860.06;;;19.81;100.00
13594;BME280;6449;47.666;9.160;2022-09-09T11:47:22;96859.56;;;20.31;100.00
13594;BME280;6449;47.666;9.160;2022-09-09T11:52:36;96850.81;;;20.46;100.00
13594;BME280;6449;47.666;9.160;2022-09-09T11:57:35;96856.34;;;20.13;100.00
13594;BME280;6449;47.666;9.160;2022-09-09T12:02:29;96850.59;;;20.09;100.00
13594;BME280;6449;47.666;9.160;2022-09-09T12:07:34;96853.56;;;20.29;100.00
13594;BME280;6449;47.666;9.160;2022-09-09T12:12:34;96846.06;;;20.33;100.00
13594;BME280;6449;47.666;9.160;2022-09-09T12:17:44;96831.28;;;20.30;100.00
13594;BME280;6449;47.666;9.160;2022-09-09T12:28:11;96818.88;;;20.60;100.00
13594;BME280;6449;47.666;9.160;2022-09-09T12:33:12;96824.41;;;20.59;100.00
13594;BME280;6449;47.666;9.160;2022-09-09T12:38:17;96819.44;;;20.56;100.00
13594;BME280;6449;47.666;9.160;2022-09-09T12:43:18;96811.56;;;20.62;100.00
13594;BME280;6449;47.666;9.160;2022-09-09T12:48:14;96808.22;;;20.60;100.00
13594;BME280;6449;47.666;9.160;2022-09-09T12:53:29;96800.72;;;20.64;100.00
13594;BME280;6449;47.666;9.160;2022-09-09T12:58:27;96808.53;;;20.65;100.00
13594;BME280;6449;47.666;9.160;2022-09-09T13:03:25;96795.09;;;20.59;100.00
13594;BME280;6449;47.666;9.160;2022-09-09T13:08:23;96792.44;;;20.59;100.00
13594;BME280;6449;47.666;9.160;2022-09-09T13:16:06;96784.91;;;20.48;100.00
13594;BME280;6449;47.666;9.160;2022-09-09T13:19:33;96768.41;;;20.44;100.00
13594;BME280;6449;47.666;9.160;2022-09-09T13:24:41;96774.13;;;20.41;100.00
13594;BME280;6449;47.666;9.160;2022-09-09T13:30:43;96753.06;;;20.31;99.51
13594;BME280;6449;47.666;9.160;2022-09-09T13:36:26;96750.59;;;20.30;100.00
13594;BME280;6449;47.666;9.160;2022-09-09T13:41:44;96747.06;;;20.14;100.00
13594;BME280;6449;47.666;9.160;2022-09-09T13:47:18;96745.31;;;20.22;100.00
13594;BME280;6449;47.666;9.160;2022-09-09T13:53:08;96747.66;;;20.25;100.00
13594;BME280;6449;47.666;9.160;2022-09-09T13:58:30;96735.63;;;20.44;100.00
13594;BME280;6449;47.666;9.160;2022-09-09T14:03:24;96735.50;;;20.60;100.00
13594;BME280;6449;47.666;9.160;2022-09-09T14:09:12;96728.88;;;20.85;100.00
13594;BME280;6449;47.666;9.160;2022-09-09T14:14:15;96723.63;;;21.07;100.00
13594;BME280;6449;47.666;9.160;2022-09-09T14:19:21;96725.59;;;21.19;100.00
13594;BME280;6449;47.666;9.160;2022-09-09T14:24:42;96736.28;;;21.34;100.00
13594;BME280;6449;47.666;9.160;2022-09-09T14:42:47;96719.66;;;20.44;100.00
13594;BME280;6449;47.666;9.160;2022-09-09T14:48:36;96719.91;;;20.19;100.00
13594;BME280;6449;47.666;9.160;2022-09-09T14:54:54;96730.13;;;20.07;100.00
13594;BME280;6449;47.666;9.160;2022-09-09T14:59:53;96738.44;;;19.89;100.00
13594;BME280;6449;47.666;9.160;2022-09-09T15:05:50;96733.38;;;19.80;100.00
13594;BME280;6449;47.666;9.160;2022-09-09T15:10:59;96731.97;;;19.92;100.00
13594;BME280;6449;47.666;9.160;2022-09-09T15:16:18;96726.94;;;20.12;100.00
13594;BME280;6449;47.666;9.160;2022-09-09T15:21:23;96734.63;;;20.30;100.00
13594;BME280;6449;47.666;9.160;2022-09-09T15:26:17;96736.22;;;20.54;100.00
13594;BME280;6449;47.666;9.160;2022-09-09T15:31:13;96736.75;;;20.49;100.00
13594;BME280;6449;47.666;9.160;2022-09-09T15:36:17;96742.31;;;20.39;96.96
13594;BME280;6449;47.666;9.160;2022-09-09T15:47:35;96739.16;;;20.59;91.31
13594;BME280;6449;47.666;9.160;2022-09-09T15:52:28;96735.69;;;20.58;91.31
13594;BME280;6449;47.666;9.160;2022-09-09T15:57:21;96747.81;;;20.46;92.72
13594;BME280;6449;47.666;9.160;2022-09-09T16:02:20;96742.59;;;20.30;98.81
13594;BME280;6449;47.666;9.160;2022-09-09T16:07:16;96747.50;;;20.18;100.00
13594;BME280;6449;47.666;9.160;2022-09-09T16:12:10;96745.38;;;19.99;91.42
13594;BME280;6449;47.666;9.160;2022-09-09T16:17:07;96736.41;;;19.92;92.37
13594;BME280;6449;47.666;9.160;2022-09-09T16:22:06;96741.75;;;19.92;88.34
13594;BME280;6449;47.666;9.160;2022-09-09T16:27:01;96752.28;;;19.85;100.00
13594;BME280;6449;47.666;9.160;2022-09-09T16:31:54;96748.44;;;19.87;100.00
13594;BME280;6449;47.666;9.160;2022-09-09T16:36:54;96753.22;;;19.69;98.80
13594;BME280;6449;47.666;9.160;2022-09-09T16:41:48;96748.13;;;19.59;100.00
13594;BME280;6449;47.666;9.160;2022-09-09T16:46:44;96754.72;;;19.41;99.29
13594;BME280;6449;47.666;9.160;2022-09-09T16:51:43;96766.28;;;19.17;95.87
13594;BME280;6449;47.666;9.160;2022-09-09T16:56:39;96767.13;;;19.17;100.00
13594;BME280;6449;47.666;9.160;2022-09-09T17:01:36;96773.47;;;19.08;100.00
13594;BME280;6449;47.666;9.160;2022-09-09T17:06:33;96776.16;;;19.00;100.00
13594;BME280;6449;47.666;9.160;2022-09-09T17:11:29;96775.88;;;18.87;100.00
13594;BME280;6449;47.666;9.160;2022-09-09T17:16:30;96791.03;;;18.70;100.00
13594;BME280;6449;47.666;9.160;2022-09-09T17:21:26;96795.81;;;18.58;100.00
13594;BME280;6449;47.666;9.160;2022-09-09T17:26:24;96804.00;;;18.40;100.00
13594;BME280;6449;47.666;9.160;2022-09-09T17:31:18;96800.34;;;18.33;100.00
13594;BME280;6449;47.666;9.160;2022-09-09T17:36:15;96807.81;;;18.38;100.00
13594;BME280;6449;47.666;9.160;2022-09-09T17:41:12;96808.47;;;18.31;100.00
13594;BME280;6449;47.666;9.160;2022-09-09T17:46:09;96813.63;;;18.33;100.00
13594;BME280;6449;47.666;9.160;2022-09-09T17:51:05;96812.31;;;18.29;100.00
13594;BME280;6449;47.666;9.160;2022-09-09T17:56:04;96825.06;;;18.42;100.00
13594;BME280;6449;47.666;9.160;2022-09-09T18:01:03;96861.41;;;18.49;100.00
13594;BME280;6449;47.666;9.160;2022-09-09T18:06:02;96882.81;;;18.56;100.00
13594;BME280;6449;47.666;9.160;2022-09-09T18:10:56;96908.50;;;17.64;100.00
13594;BME280;6449;47.666;9.160;2022-09-09T18:15:50;96909.13;;;17.24;100.00
13594;BME280;6449;47.666;9.160;2022-09-09T18:20:43;96913.22;;;16.92;100.00
13594;BME280;6449;47.666;9.160;2022-09-09T18:25:39;96935.59;;;16.72;100.00
13594;BME280;6449;47.666;9.160;2022-09-09T18:30:32;96929.59;;;16.88;100.00
13594;BME280;6449;47.666;9.160;2022-09-09T18:35:29;96928.91;;;16.86;100.00
13594;BME280;6449;47.666;9.160;2022-09-09T18:40:23;96925.06;;;16.80;100.00
13594;BME280;6449;47.666;9.160;2022-09-09T18:45:22;96919.94;;;16.79;100.00
13594;BME280;6449;47.666;9.160;2022-09-09T18:50:15;96920.31;;;16.84;100.00
13594;BME280;6449;47.666;9.160;2022-09-09T18:55:10;96930.28;;;16.90;100.00
13594;BME280;6449;47.666;9.160;2022-09-09T19:00:05;96940.47;;;16.67;100.00
13594;BME280;6449;47.666;9.160;2022-09-09T19:05:02;96929.59;;;16.70;100.00
13594;BME280;6449;47.666;9.160;2022-09-09T19:09:55;96930.28;;;16.72;100.00
13594;BME280;6449;47.666;9.160;2022-09-09T19:14:49;96931.00;;;16.74;100.00
13594;BME280;6449;47.666;9.160;2022-09-09T19:19:43;96949.94;;;16.69;100.00
13594;BME280;6449;47.666;9.160;2022-09-09T19:24:38;96952.97;;;16.39;100.00
13594;BME280;6449;47.666;9.160;2022-09-09T19:29:35;96934.53;;;16.29;100.00
13594;BME280;6449;47.666;9.160;2022-09-09T19:34:30;96936.88;;;16.32;100.00
13594;BME280;6449;47.666;9.160;2022-09-09T19:39:24;96932.56;;;16.49;100.00
13594;BME280;6449;47.666;9.160;2022-09-09T19:44:18;96944.44;;;16.27;100.00
13594;BME280;6449;47.666;9.160;2022-09-09T19:49:13;96949.56;;;16.29;100.00
13594;BME280;6449;47.666;9.160;2022-09-09T19:54:10;96966.97;;;16.31;100.00
13594;BME280;6449;47.666;9.160;2022-09-09T19:59:08;96984.06;;;16.37;100.00
13594;BME280;6449;47.666;9.160;2022-09-09T20:04:05;96988.03;;;16.23;100.00
13594;BME280;6449;47.666;9.160;2022-09-09T20:09:01;96985.28;;;16.24;100.00
13594;BME280;6449;47.666;9.160;2022-09-09T20:13:55;96985.16;;;16.16;100.00
13594;BME280;6449;47.666;9.160;2022-09-09T20:18:51;96975.47;;;16.07;100.00
13594;BME280;6449;47.666;9.160;2022-09-09T20:23:48;96970.72;;;16.11;100.00
13594;BME280;6449;47.666;9.160;2022-09-09T20:28:42;96972.97;;;16.06;100.00
13594;BME280;6449;47.666;9.160;2022-09-09T20:33:41;96981.53;;;16.17;100.00
13594;BME280;6449;47.666;9.160;2022-09-09T20:38:34;96986.81;;;16.17;100.00
13594;BME280;6449;47.666;9.160;2022-09-09T20:43:30;96984.63;;;16.13;100.00
13594;BME280;6449;47.666;9.160;2022-09-09T20:48:24;96994.09;;;15.88;100.00
13594;BME280;6449;47.666;9.160;2022-09-09T20:53:17;96992.34;;;15.79;100.00
13594;BME280;6449;47.666;9.160;2022-09-09T20:58:10;96990.03;;;15.56;100.00
13594;BME280;6449;47.666;9.160;2022-09-09T21:03:05;96997.16;;;15.46;100.00
13594;BME280;6449;47.666;9.160;2022-09-09T21:07:58;97003.13;;;15.48;100.00
13594;BME280;6449;47.666;9.160;2022-09-09T21:12:52;97007.19;;;15.42;100.00
13594;BME280;6449;47.666;9.160;2022-09-09T21:17:45;97006.84;;;15.55;100.00
13594;BME280;6449;47.666;9.160;2022-09-09T21:22:40;97014.94;;;15.54;100.00
13594;BME280;6449;47.666;9.160;2022-09-09T21:27:33;97017.28;;;15.57;100.00
13594;BME280;6449;47.666;9.160;2022-09-09T21:32:26;97021.03;;;15.54;100.00
13594;BME280;6449;47.666;9.160;2022-09-09T21:37:19;97021.88;;;15.55;100.00
13594;BME280;6449;47.666;9.160;2022-09-09T21:42:14;97038.22;;;15.31;100.00
13594;BME280;6449;47.666;9.160;2022-09-09T21:47:07;97048.38;;;15.26;100.00
13594;BME280;6449;47.666;9.160;2022-09-09T21:52:01;97040.19;;;15.29;100.00
13594;BME280;6449;47.666;9.160;2022-09-09T21:56:54;97037.66;;;15.37;100.00
13594;BME280;6449;47.666;9.160;2022-09-09T22:01:51;97042.22;;;15.44;100.00
13594;BME280;6449;47.666;9.160;2022-09-09T22:06:44;97047.94;;;15.40;100.00
13594;BME280;6449;47.666;9.160;2022-09-09T22:11:38;97049.47;;;15.33;100.00
13594;BME280;6449;47.666;9.160;2022-09-09T22:16:32;97037.09;;;15.33;100.00
13594;BME280;6449;47.666;9.160;2022-09-09T22:21:29;97037.06;;;15.43;100.00
13594;BME280;6449;47.666;9.160;2022-09-09T22:26:26;97031.13;;;15.31;100.00
13594;BME280;6449;47.666;9.160;2022-09-09T22:31:20;97036.00;;;15.36;100.00
13594;BME280;6449;47.666;9.160;2022-09-09T22:36:14;97034.75;;;15.40;100.00
13594;BME280;6449;47.666;9.160;2022-09-09T22:41:09;97038.31;;;15.39;100.00
13594;BME280;6449;47.666;9.160;2022-09-09T22:46:03;97034.00;;;15.48;100.00
13594;BME280;6449;47.666;9.160;2022-09-09T22:51:00;97036.00;;;15.26;100.00
13594;BME280;6449;47.666;9.160;2022-09-09T22:55:57;97026.00;;;15.30;100.00
13594;BME280;6449;47.666;9.160;2022-09-09T23:00:52;97039.19;;;15.30;100.00
13594;BME280;6449;47.666;9.160;2022-09-09T23:05:54;97043.09;;;15.26;100.00
13594;BME280;6449;47.666;9.160;2022-09-09T23:10:48;97044.19;;;15.33;100.00
13594;BME280;6449;47.666;9.160;2022-09-09T23:15:41;97045.34;;;15.11;100.00
13594;BME280;6449;47.666;9.160;2022-09-09T23:20:38;97040.63;;;15.14;100.00
13594;BME280;6449;47.666;9.160;2022-09-09T23:25:33;97042.84;;;15.19;100.00
13594;BME280;6449;47.666;9.160;2022-09-09T23:30:27;97040.19;;;15.29;100.00
13594;BME280;6449;47.666;9.160;2022-09-09T23:35:21;97027.25;;;15.26;100.00
13594;BME280;6449;47.666;9.160;2022-09-09T23:40:15;97020.97;;;15.36;100.00
13594;BME280;6449;47.666;9.160;2022-09-09T23:45:09;97017.66;;;15.25;100.00
13594;BME280;6449;47.666;9.160;2022-09-09T23:50:04;97018.06;;;15.30;100.00
13594;BME280;6449;47.666;9.160;2022-09-09T23:54:58;97009.34;;;15.19;100.00
13594;BME280;6449;47.666;9.160;2022-09-09T23:59:53;97015.03;;;15.15;100.00
